Time;durP1;ratioP1;P1;durP2;ratioP2;P2;SDS_P1;SDS_P2;PMS_P1;PMS_P2;Temp;Humidity;BMP_temperature;BMP_pressure;BME280_temperature;BME280_humidity;BME280_pressure;Samples;Min_cycle;Max_cycle;Signal;HPM_P1;HPM_P2
2023/07/24 00:00:33;;;;;;;16.52;9.52;;;;;;;23.91;51.80;95439.97;4973823;28;20114;-84
2023/07/24 00:02:59;;;;;;;20.73;8.55;;;;;;;23.74;51.91;95394.28;4942346;29;20031;-84
2023/07/24 00:05:24;;;;;;;18.02;9.68;;;;;;;24.45;51.40;95494.25;4941777;28;20121;-83
2023/07/24 00:07:50;;;;;;;15.45;9.05;;;;;;;24.35;51.55;95480.47;4959660;29;20047;-83
2023/07/24 00:10:15;;;;;;;14.90;9.23;;;;;;;23.36;51.71;95335.38;4942265;29;20041;-83
2023/07/24 00:12:41;;;;;;;14.63;8.75;;;;;;;23.75;51.89;95425.66;4950585;28;20047;-84
2023/07/24 00:15:07;;;;;;;17.30;9.50;;;;;;;24.21;51.83;95470.09;4932229;29;20059;-83
2023/07/24 00:17:32;;;;;;;15.43;9.07;;;;;;;23.72;51.47;95391.97;4942100;28;20031;-83
2023/07/24 00:19:58;;;;;;;16.48;9.18;;;;;;;23.26;51.66;95328.59;4942781;28;20505;-84
2023/07/24 00:22:23;;;;;;;20.45;9.63;;;;;;;24.25;51.13;95481.03;4942507;29;20058;-83
2023/07/24 00:24:48;;;;;;;15.45;9.52;;;;;;;24.36;51.06;95485.53;4941418;28;20050;-83
2023/07/24 00:27:14;;;;;;;16.75;9.40;;;;;;;23.88;50.82;95419.00;4959331;29;20039;-83
2023/07/24 00:29:39;;;;;;;16.25;8.60;;;;;;;23.47;50.74;95352.66;4924090;29;20478;-83
2023/07/24 00:32:05;;;;;;;15.55;9.95;;;;;;;23.27;50.77;95318.53;4941871;29;20081;-83
2023/07/24 00:34:31;;;;;;;20.77;10.75;;;;;;;24.15;50.96;95463.34;4956584;29;20048;-83
2023/07/24 00:36:56;;;;;;;20.02;9.50;;;;;;;23.85;51.09;95406.16;4927126;28;20182;-84
2023/07/24 00:39:22;;;;;;;19.20;10.38;;;;;;;24.19;51.20;95466.91;4953279;28;20039;-83
2023/07/24 00:41:47;;;;;;;18.27;9.98;;;;;;;23.69;51.50;95391.88;4929267;28;20039;-83
2023/07/24 00:44:13;;;;;;;15.95;9.65;;;;;;;24.18;51.27;95463.41;4957946;29;20066;-83
2023/07/24 00:46:38;;;;;;;16.02;9.73;;;;;;;23.56;51.65;95395.81;4941836;28;20039;-83
2023/07/24 00:49:04;;;;;;;17.33;11.38;;;;;;;23.88;51.72;95445.31;4942687;29;20480;-83
2023/07/24 00:51:30;;;;;;;15.00;9.65;;;;;;;24.12;51.98;95481.09;4942547;29;20035;-84
2023/07/24 00:53:57;;;;;;;16.40;9.85;;;;;;;23.91;52.13;95467.06;4945269;29;20051;-84
2023/07/24 00:56:23;;;;;;;14.85;9.30;;;;;;;23.13;52.63;95373.06;4937100;29;20042;-83
2023/07/24 00:58:49;;;;;;;16.35;9.23;;;;;;;23.49;52.65;95426.22;4960445;29;20145;-83
2023/07/24 01:01:16;;;;;;;16.85;9.90;;;;;;;22.85;52.63;95332.56;4960072;29;20043;-84
2023/07/24 01:03:43;;;;;;;15.13;8.95;;;;;;;23.43;52.85;95428.34;4943416;29;20036;-84
2023/07/24 01:06:09;;;;;;;17.02;9.65;;;;;;;23.75;52.68;95461.66;4942534;28;20126;-84
2023/07/24 01:08:35;;;;;;;16.40;10.02;;;;;;;23.73;52.96;95469.31;4941142;29;20081;-83
2023/07/24 01:11:08;;;;;;;16.08;9.70;;;;;;;23.62;52.83;95435.81;4941941;28;20032;-83
2023/07/24 01:13:40;;;;;;;13.20;9.35;;;;;;;23.76;52.84;95467.84;4941383;29;20099;-84
2023/07/24 01:16:18;;;;;;;17.30;9.80;;;;;;;23.25;53.79;95443.34;4940291;29;20043;-83
2023/07/24 01:18:45;;;;;;;15.90;9.52;;;;;;;23.18;54.02;95429.66;4958840;28;20511;-84
2023/07/24 01:21:12;;;;;;;16.65;9.98;;;;;;;23.05;54.62;95444.34;4935475;28;20035;-83
2023/07/24 01:23:51;;;;;;;14.85;9.40;;;;;;;23.28;54.57;95468.91;4945329;29;20031;-83
2023/07/24 01:26:17;;;;;;;15.02;9.95;;;;;;;23.47;54.47;95469.03;4940915;29;20050;-83
2023/07/24 01:28:43;;;;;;;13.70;8.60;;;;;;;22.70;54.28;95338.72;4957024;29;20081;-84
2023/07/24 01:31:09;;;;;;;16.25;9.57;;;;;;;23.11;54.33;95409.75;4940892;29;20039;-83
2023/07/24 01:33:35;;;;;;;17.00;10.02;;;;;;;22.95;54.76;95413.22;4940858;29;20039;-83
2023/07/24 01:36:02;;;;;;;16.02;9.80;;;;;;;23.20;54.69;95456.34;4941046;28;20054;-83
2023/07/24 01:38:30;;;;;;;14.57;9.88;;;;;;;22.91;54.84;95427.75;4960135;29;20039;-84
2023/07/24 01:40:57;;;;;;;15.68;10.48;;;;;;;23.09;54.81;95440.63;5038727;28;20103;-84
2023/07/24 01:43:27;;;;;;;15.55;9.48;;;;;;;22.26;54.68;95325.19;4957851;29;20039;-84
2023/07/24 01:45:53;;;;;;;16.00;9.27;;;;;;;22.77;54.53;95406.53;4961118;28;20039;-84
2023/07/24 01:48:18;;;;;;;19.60;9.40;;;;;;;22.91;53.74;95446.69;4953652;28;20058;-84
2023/07/24 01:50:44;;;;;;;16.17;9.20;;;;;;;23.11;53.69;95499.81;4957788;29;20804;-84
2023/07/24 01:53:09;;;;;;;11.55;8.05;;;;;;;22.30;53.73;95361.19;4940626;28;20465;-84
2023/07/24 01:55:35;;;;;;;15.13;8.93;;;;;;;22.69;53.31;95389.28;4925211;29;20027;-84
2023/07/24 01:58:01;;;;;;;17.35;9.25;;;;;;;22.89;53.63;95428.09;4955420;29;20043;-84
2023/07/24 02:00:26;;;;;;;14.82;8.35;;;;;;;22.73;53.81;95396.72;4958975;29;20035;-84
2023/07/24 02:02:52;;;;;;;16.40;8.93;;;;;;;22.99;54.06;95467.38;4928719;29;20062;-84
2023/07/24 02:05:17;;;;;;;13.13;8.35;;;;;;;23.18;53.77;95482.97;4959273;29;20031;-84
2023/07/24 02:07:43;;;;;;;11.43;7.95;;;;;;;23.22;53.57;95481.13;4960200;29;20034;-84
2023/07/24 02:10:08;;;;;;;15.85;8.43;;;;;;;23.08;53.65;95459.91;4952070;29;20048;-84
2023/07/24 02:12:34;;;;;;;16.40;9.07;;;;;;;22.57;53.85;95391.28;4952393;29;20083;-84
2023/07/24 02:14:59;;;;;;;11.48;7.75;;;;;;;22.28;54.40;95374.25;4947689;28;20042;-84
2023/07/24 02:17:25;;;;;;;15.68;9.30;;;;;;;22.53;54.32;95422.81;4963860;29;20058;-84
2023/07/24 02:19:50;;;;;;;20.98;8.70;;;;;;;22.51;54.36;95406.94;4963501;29;20043;-84
2023/07/24 02:22:16;;;;;;;19.58;9.55;;;;;;;22.83;54.17;95440.28;4957294;29;20035;-84
2023/07/24 02:24:42;;;;;;;13.25;8.73;;;;;;;22.92;53.95;95445.56;4939065;29;20031;-84
2023/07/24 02:27:07;;;;;;;16.38;8.85;;;;;;;23.00;53.78;95452.72;4940070;29;20049;-84
2023/07/24 02:29:33;;;;;;;15.15;8.68;;;;;;;23.09;53.67;95458.78;4990715;28;20054;-84
2023/07/24 02:31:59;;;;;;;17.70;9.25;;;;;;;23.02;54.19;95461.28;4946970;28;20043;-84
2023/07/24 02:34:26;;;;;;;13.50;8.55;;;;;;;23.08;53.95;95460.69;4947509;28;20036;-84
2023/07/24 02:36:52;;;;;;;20.33;9.30;;;;;;;22.95;54.07;95440.25;4932277;28;20035;-84
2023/07/24 02:39:18;;;;;;;16.30;9.88;;;;;;;22.68;53.83;95428.28;4939156;29;20170;-84
2023/07/24 02:41:43;;;;;;;33.88;9.73;;;;;;;22.60;53.61;95387.88;4965525;28;20082;-84
2023/07/24 02:44:09;;;;;;;15.02;9.50;;;;;;;23.03;53.19;95450.13;4927797;28;20032;-84
2023/07/24 02:46:34;;;;;;;16.20;9.55;;;;;;;22.86;53.30;95446.94;4940713;29;20117;-84
2023/07/24 02:49:00;;;;;;;22.45;10.43;;;;;;;22.51;53.23;95420.44;4943161;28;20058;-84
2023/07/24 02:51:25;;;;;;;19.27;10.68;;;;;;;22.73;53.72;95450.78;4932826;29;20464;-84
2023/07/24 02:53:55;;;;;;;19.20;10.90;;;;;;;22.70;53.59;95426.00;4954339;29;20473;-84
2023/07/24 02:56:21;;;;;;;17.38;10.20;;;;;;;22.60;54.22;95437.31;4929629;28;20031;-84
2023/07/24 02:58:46;;;;;;;15.75;9.52;;;;;;;22.77;54.36;95457.91;4936478;28;20084;-84
2023/07/24 03:01:14;;;;;;;14.75;9.05;;;;;;;22.53;54.33;95409.28;4942409;29;20030;-84
2023/07/24 03:03:40;;;;;;;14.45;8.77;;;;;;;22.30;53.96;95353.09;4960113;28;20055;-84
2023/07/24 03:06:06;;;;;;;14.98;9.95;;;;;;;22.82;54.04;95436.00;4959384;29;20074;-84
2023/07/24 03:08:31;;;;;;;18.90;10.00;;;;;;;22.65;53.83;95415.47;4959227;29;20031;-84
2023/07/24 03:10:57;;;;;;;15.48;10.38;;;;;;;22.89;53.80;95443.53;4942286;29;20031;-84
2023/07/24 03:13:23;;;;;;;16.42;9.70;;;;;;;23.05;53.56;95453.25;4942302;28;20066;-84
2023/07/24 03:15:56;;;;;;;22.02;10.05;;;;;;;22.87;53.68;95430.38;4959846;29;20031;-85
2023/07/24 03:18:22;;;;;;;18.55;10.13;;;;;;;22.97;53.97;95458.81;4942421;29;20054;-84
2023/07/24 03:20:47;;;;;;;17.65;10.20;;;;;;;22.45;53.73;95405.59;4959797;29;20035;-84
2023/07/24 03:23:13;;;;;;;17.38;10.80;;;;;;;22.47;53.42;95408.75;4942568;29;20053;-85
2023/07/24 03:25:39;;;;;;;16.83;10.35;;;;;;;22.62;53.43;95423.44;4958160;29;20028;-84
2023/07/24 03:28:04;;;;;;;18.23;10.25;;;;;;;22.60;53.57;95440.00;4944040;29;20043;-83
2023/07/24 03:30:29;;;;;;;17.38;10.25;;;;;;;22.55;53.62;95415.94;4957252;29;20103;-83
2023/07/24 03:32:57;;;;;;;16.27;10.10;;;;;;;22.63;54.31;95433.94;4941640;29;20097;-83
2023/07/24 03:35:22;;;;;;;21.65;9.85;;;;;;;22.92;54.32;95473.38;4959888;29;20098;-83
2023/07/24 03:37:48;;;;;;;17.58;10.23;;;;;;;22.60;55.04;95437.31;4933233;28;20063;-83
2023/07/24 03:40:13;;;;;;;14.43;9.52;;;;;;;22.34;55.00;95407.22;4952168;29;20039;-84
2023/07/24 03:42:39;;;;;;;18.30;9.68;;;;;;;22.60;54.78;95431.91;4960644;29;20027;-83
2023/07/24 03:45:05;;;;;;;18.05;9.55;;;;;;;22.91;54.76;95469.09;4943434;29;20444;-83
2023/07/24 03:47:31;;;;;;;21.45;10.65;;;;;;;22.70;55.18;95450.34;4942079;29;20039;-83
2023/07/24 03:49:56;;;;;;;18.40;10.18;;;;;;;22.62;55.32;95432.34;4941853;29;20061;-84
2023/07/24 03:52:21;;;;;;;18.73;10.43;;;;;;;22.83;55.35;95477.34;4959545;29;20071;-83
2023/07/24 03:54:47;;;;;;;18.83;10.30;;;;;;;22.82;55.28;95476.56;4958504;28;20067;-83
2023/07/24 03:57:13;;;;;;;17.95;11.05;;;;;;;22.61;54.86;95457.03;4942340;29;20066;-84
2023/07/24 03:59:38;;;;;;;18.85;10.60;;;;;;;22.08;54.84;95380.63;4941024;29;20099;-83
2023/07/24 04:02:04;;;;;;;22.20;11.18;;;;;;;22.48;55.33;95463.59;4941747;28;20039;-83
2023/07/24 04:04:30;;;;;;;17.77;11.35;;;;;;;22.67;54.96;95480.75;4941959;29;20038;-83
2023/07/24 04:06:55;;;;;;;20.98;11.70;;;;;;;22.77;54.64;95474.13;4942693;29;20039;-83
2023/07/24 04:09:21;;;;;;;25.30;12.40;;;;;;;22.22;55.21;95429.66;4941483;28;20064;-84
2023/07/24 04:11:46;;;;;;;22.90;11.60;;;;;;;22.57;55.17;95469.66;4940690;29;20051;-84
2023/07/24 04:14:11;;;;;;;21.65;11.05;;;;;;;22.72;55.04;95479.75;4941319;28;20031;-85
2023/07/24 04:16:37;;;;;;;21.20;11.70;;;;;;;22.56;55.58;95482.38;4959257;29;20038;-84
2023/07/24 04:19:03;;;;;;;19.65;11.32;;;;;;;22.44;56.00;95465.38;4941306;28;20035;-85
2023/07/24 04:21:28;;;;;;;18.38;10.82;;;;;;;22.48;55.83;95460.91;4961152;29;20093;-84
2023/07/24 04:23:54;;;;;;;24.25;11.80;;;;;;;22.42;56.07;95446.06;4959840;29;20109;-84
2023/07/24 04:26:20;;;;;;;20.48;11.18;;;;;;;22.69;56.25;95467.69;4959831;28;20213;-84
2023/07/24 04:28:46;;;;;;;21.30;10.45;;;;;;;22.83;55.92;95490.88;4941791;29;20051;-84
2023/07/24 04:31:12;;;;;;;20.13;12.07;;;;;;;22.05;54.94;95381.28;4970713;28;20031;-84
2023/07/24 04:33:38;;;;;;;22.05;11.70;;;;;;;22.20;54.43;95409.53;4958588;29;20043;-84
2023/07/24 04:36:04;;;;;;;26.30;12.38;;;;;;;22.38;53.94;95427.03;4941949;29;20063;-84
2023/07/24 04:38:29;;;;;;;20.77;12.38;;;;;;;22.36;54.29;95423.88;4957151;29;20385;-84
2023/07/24 04:40:55;;;;;;;27.02;13.15;;;;;;;22.87;53.91;95487.16;4941513;28;20042;-84
2023/07/24 04:43:20;;;;;;;27.60;13.50;;;;;;;22.82;53.48;95490.09;4942043;28;20428;-84
2023/07/24 04:45:45;;;;;;;26.58;14.30;;;;;;;22.89;53.11;95494.91;4958935;29;20146;-84
2023/07/24 04:48:11;;;;;;;24.90;13.20;;;;;;;22.87;53.44;95484.44;4957382;29;20042;-84
2023/07/24 04:50:36;;;;;;;23.55;12.43;;;;;;;22.98;52.78;95492.84;4960203;29;20027;-84
2023/07/24 04:53:02;;;;;;;26.25;13.75;;;;;;;22.74;52.85;95455.88;4943031;28;20084;-84
2023/07/24 04:55:28;;;;;;;23.25;12.77;;;;;;;23.07;52.98;95488.88;4942481;29;20138;-84
2023/07/24 04:57:53;;;;;;;21.52;11.57;;;;;;;22.82;53.64;95444.13;4942510;29;20169;-83
2023/07/24 05:00:19;;;;;;;29.73;13.95;;;;;;;22.65;53.40;95411.97;4940831;29;20047;-84
2023/07/24 05:02:44;;;;;;;20.90;12.32;;;;;;;22.87;53.30;95429.59;4941739;29;20131;-84
2023/07/24 05:05:10;;;;;;;21.50;12.32;;;;;;;22.86;53.53;95438.81;4941993;29;20039;-84
2023/07/24 05:07:36;;;;;;;20.27;11.93;;;;;;;23.12;53.96;95476.22;4943034;29;20078;-83
2023/07/24 05:10:02;;;;;;;24.40;12.55;;;;;;;22.89;54.11;95471.34;4941230;28;20070;-83
2023/07/24 05:12:27;;;;;;;24.33;12.57;;;;;;;22.97;53.68;95454.19;4959231;29;20081;-83
2023/07/24 05:14:53;;;;;;;20.92;11.82;;;;;;;23.26;54.19;95493.63;4942067;28;20043;-84
2023/07/24 05:17:18;;;;;;;27.05;11.95;;;;;;;23.13;54.15;95461.56;4935657;29;20486;-83
2023/07/24 05:19:43;;;;;;;19.58;11.13;;;;;;;22.70;54.41;95395.50;4944394;28;20102;-83
2023/07/24 05:22:10;;;;;;;24.38;12.32;;;;;;;23.38;54.09;95492.78;5017572;28;20035;-83
2023/07/24 05:24:36;;;;;;;24.02;12.00;;;;;;;23.02;54.15;95428.84;4951468;28;20092;-83
2023/07/24 05:27:02;;;;;;;17.70;11.13;;;;;;;23.35;54.42;95490.75;5005142;28;20127;-83
2023/07/24 05:29:28;;;;;;;22.50;12.05;;;;;;;23.39;54.55;95487.03;4975097;28;20065;-83
2023/07/24 05:31:53;;;;;;;19.13;11.10;;;;;;;23.48;54.30;95500.41;4952806;29;20059;-83
2023/07/24 05:34:19;;;;;;;17.92;11.18;;;;;;;23.40;54.27;95476.97;4956212;29;20065;-83
2023/07/24 05:36:44;;;;;;;20.02;12.98;;;;;;;22.65;53.53;95347.09;4951424;29;20530;-84
2023/07/24 05:39:10;;;;;;;22.77;11.52;;;;;;;23.41;53.63;95449.56;4965048;28;20031;-84
2023/07/24 05:41:36;;;;;;;20.65;10.48;;;;;;;23.50;53.51;95475.72;4959252;28;20529;-84
2023/07/24 05:44:01;;;;;;;15.95;10.48;;;;;;;23.44;53.37;95450.78;4956516;28;20055;-84
2023/07/24 05:46:26;;;;;;;19.13;11.00;;;;;;;23.71;52.90;95478.94;4958588;29;20112;-84
2023/07/24 05:48:52;;;;;;;17.77;9.68;;;;;;;22.82;52.16;95335.97;4972895;28;20065;-84
2023/07/24 05:51:17;;;;;;;13.75;9.25;;;;;;;23.05;51.46;95355.88;4958407;28;20027;-84
2023/07/24 05:53:43;;;;;;;12.80;9.10;;;;;;;23.77;51.23;95453.97;4941403;29;20038;-84
2023/07/24 05:56:08;;;;;;;17.48;10.13;;;;;;;23.78;51.58;95455.53;4965688;28;20354;-84
2023/07/24 05:58:34;;;;;;;29.73;12.25;;;;;;;23.90;51.43;95473.59;4984847;28;20031;-84
2023/07/24 06:01:00;;;;;;;15.07;10.13;;;;;;;23.67;51.11;95445.56;4939917;29;20043;-84
2023/07/24 06:03:26;;;;;;;27.08;11.25;;;;;;;23.33;50.70;95358.53;4951407;28;20073;-84
2023/07/24 06:05:53;;;;;;;22.08;10.05;;;;;;;23.94;51.21;95471.00;4946889;28;20043;-84
2023/07/24 06:08:18;;;;;;;17.90;9.85;;;;;;;23.98;51.78;95459.09;4928383;28;20027;-84
2023/07/24 06:10:47;;;;;;;19.30;10.55;;;;;;;23.87;52.57;95457.28;4947740;29;20072;-84
2023/07/24 06:13:12;;;;;;;23.65;10.18;;;;;;;23.56;51.58;95391.19;4939857;28;20044;-84
2023/07/24 06:15:38;;;;;;;26.52;10.35;;;;;;;23.47;50.99;95364.25;4941361;28;20367;-84
2023/07/24 06:18:03;;;;;;;22.88;10.23;;;;;;;24.17;50.85;95466.50;4959280;29;20053;-84
2023/07/24 06:20:28;;;;;;;18.75;10.48;;;;;;;23.82;50.17;95393.31;5035885;28;20068;-84
2023/07/24 06:22:54;;;;;;;44.90;13.52;;;;;;;23.76;50.45;95384.69;4961088;28;20058;-84
2023/07/24 06:25:19;;;;;;;23.60;10.52;;;;;;;23.87;50.64;95387.66;4945070;29;20035;-84
2023/07/24 06:27:46;;;;;;;25.17;10.88;;;;;;;23.90;50.92;95389.63;4937633;28;20039;-84
2023/07/24 06:30:11;;;;;;;18.33;9.68;;;;;;;23.94;51.06;95390.50;4972221;28;20035;-84
2023/07/24 06:32:37;;;;;;;18.83;10.80;;;;;;;24.03;50.55;95425.53;4948746;29;20085;-84
2023/07/24 06:35:02;;;;;;;21.55;12.02;;;;;;;24.29;50.66;95463.69;4955557;29;20055;-84
2023/07/24 06:37:28;;;;;;;21.48;11.23;;;;;;;24.23;50.14;95430.66;4963265;28;20035;-84
2023/07/24 06:39:53;;;;;;;20.90;10.93;;;;;;;23.79;50.45;95350.72;4956854;28;20054;-84
2023/07/24 06:42:19;;;;;;;17.63;10.43;;;;;;;24.21;50.00;95430.22;4961842;29;20039;-84
2023/07/24 06:44:44;;;;;;;20.33;10.60;;;;;;;24.34;50.79;95435.50;4961635;29;20054;-84
2023/07/24 06:47:10;;;;;;;21.65;10.68;;;;;;;23.94;49.39;95376.19;4951370;29;20050;-84
2023/07/24 06:49:35;;;;;;;19.50;12.00;;;;;;;24.56;49.19;95453.81;4949318;29;20424;-84
2023/07/24 06:52:02;;;;;;;34.17;12.90;;;;;;;24.23;49.33;95405.50;5015707;28;20040;-84
2023/07/24 06:54:28;;;;;;;32.78;13.15;;;;;;;24.46;49.07;95428.06;4957240;28;20043;-84
2023/07/24 06:56:53;;;;;;;28.75;12.70;;;;;;;24.56;49.01;95430.19;4948417;28;20414;-84
2023/07/24 06:59:18;;;;;;;20.92;11.20;;;;;;;24.72;48.80;95438.25;4944119;29;20037;-84
2023/07/24 07:01:44;;;;;;;24.08;12.25;;;;;;;24.57;48.75;95410.06;4961895;29;20047;-84
2023/07/24 07:04:09;;;;;;;13.90;10.02;;;;;;;24.60;48.59;95414.78;4969772;28;20031;-84
2023/07/24 07:06:35;;;;;;;19.90;10.13;;;;;;;24.67;49.20;95432.34;4933136;28;20054;-84
2023/07/24 07:09:00;;;;;;;16.08;10.18;;;;;;;24.50;48.78;95419.97;4961643;29;20039;-84
2023/07/24 07:11:26;;;;;;;18.83;10.77;;;;;;;24.69;48.81;95468.81;4931204;28;20051;-84
2023/07/24 07:13:51;;;;;;;22.00;10.27;;;;;;;24.46;49.34;95452.47;4952591;28;20035;-84
2023/07/24 07:16:18;;;;;;;22.77;10.98;;;;;;;24.51;49.67;95448.66;4960915;28;20062;-84
2023/07/24 07:18:44;;;;;;;19.35;9.70;;;;;;;24.79;49.36;95453.91;4943709;28;20039;-84
2023/07/24 07:21:10;;;;;;;20.27;11.95;;;;;;;24.40;49.06;95382.63;4961296;29;20342;-84
2023/07/24 07:23:36;;;;;;;24.52;10.98;;;;;;;24.93;48.80;95437.94;4944836;29;20035;-84
2023/07/24 07:26:02;;;;;;;19.45;11.00;;;;;;;24.41;48.45;95376.81;4944488;28;20546;-84
2023/07/24 07:28:27;;;;;;;22.00;10.25;;;;;;;24.50;48.39;95374.69;4961970;29;20061;-84
2023/07/24 07:30:54;;;;;;;14.25;9.85;;;;;;;24.95;48.04;95422.06;4934093;28;20105;-85
2023/07/24 07:33:21;;;;;;;25.35;12.68;;;;;;;24.87;48.62;95412.22;4980320;28;20512;-84
2023/07/24 07:35:47;;;;;;;17.70;10.40;;;;;;;24.91;48.35;95408.44;4967645;28;20051;-84
2023/07/24 07:38:13;;;;;;;15.25;8.77;;;;;;;24.92;48.24;95398.38;4961045;29;20094;-84
2023/07/24 07:40:41;;;;;;;21.48;10.88;;;;;;;24.93;48.21;95378.25;4944031;29;20043;-84
2023/07/24 07:43:06;;;;;;;25.20;10.15;;;;;;;25.07;48.25;95418.41;4943036;29;20118;-83
2023/07/24 07:45:32;;;;;;;19.00;10.05;;;;;;;25.09;48.06;95429.72;4959509;29;20034;-83
2023/07/24 07:47:57;;;;;;;16.13;10.50;;;;;;;25.04;48.35;95419.13;4952663;28;20042;-83
2023/07/24 07:50:23;;;;;;;18.27;10.95;;;;;;;25.06;47.66;95422.28;4960946;29;20047;-83
2023/07/24 07:52:52;;;;;;;26.02;10.80;;;;;;;25.02;48.11;95403.22;4942902;29;20042;-84
2023/07/24 07:55:20;;;;;;;19.38;11.20;;;;;;;25.02;47.95;95410.59;4947952;29;20039;-83
2023/07/24 07:57:46;;;;;;;22.60;10.63;;;;;;;25.29;47.67;95423.09;4964253;28;20031;-83
2023/07/24 08:00:12;;;;;;;21.77;10.95;;;;;;;25.01;47.59;95352.03;4943116;29;20031;-83
2023/07/24 08:02:40;;;;;;;16.73;10.43;;;;;;;25.10;46.81;95350.63;4943344;29;20038;-83
2023/07/24 08:05:10;;;;;;;16.60;10.35;;;;;;;25.62;46.43;95412.44;4943606;29;20027;-84
2023/07/24 08:07:36;;;;;;;17.35;9.98;;;;;;;25.48;46.90;95409.44;4962347;28;20028;-83
2023/07/24 08:10:03;;;;;;;24.42;11.07;;;;;;;25.77;46.32;95435.19;4960061;29;20059;-83
2023/07/24 08:12:28;;;;;;;19.33;10.50;;;;;;;25.80;45.80;95415.41;4976140;28;20481;-84
2023/07/24 08:14:53;;;;;;;17.65;10.75;;;;;;;25.66;45.71;95393.47;4958235;28;20427;-84
2023/07/24 08:17:19;;;;;;;31.05;12.27;;;;;;;25.45;46.11;95339.59;4969601;28;20057;-84
2023/07/24 08:19:45;;;;;;;42.67;14.15;;;;;;;26.22;45.66;95428.06;4945492;29;20051;-84
2023/07/24 08:22:11;;;;;;;17.70;10.57;;;;;;;25.59;45.18;95328.97;5001692;28;20035;-84
2023/07/24 08:24:36;;;;;;;29.40;12.45;;;;;;;26.22;44.93;95409.84;4962025;28;20064;-84
2023/07/24 08:27:02;;;;;;;21.30;11.77;;;;;;;26.36;44.63;95412.00;4969989;28;20028;-84
2023/07/24 08:29:28;;;;;;;22.75;11.85;;;;;;;26.05;43.98;95351.34;5004764;28;20039;-85
2023/07/24 08:31:54;;;;;;;25.30;12.23;;;;;;;26.44;43.55;95387.25;5002544;28;20337;-84
2023/07/24 08:34:19;;;;;;;24.42;12.85;;;;;;;26.46;43.55;95370.56;4947728;28;20330;-84
2023/07/24 08:36:45;;;;;;;46.05;12.18;;;;;;;26.71;43.59;95398.81;4958645;29;20110;-86
2023/07/24 08:39:10;;;;;;;22.25;11.05;;;;;;;26.57;43.74;95370.66;4956247;29;20035;-85
2023/07/24 08:41:39;;;;;;;19.58;10.82;;;;;;;26.91;43.72;95399.47;4959276;29;20027;-85
2023/07/24 08:44:08;;;;;;;19.17;10.70;;;;;;;26.96;43.73;95399.13;4962467;28;20032;-85
2023/07/24 08:46:37;;;;;;;26.25;12.15;;;;;;;26.67;43.97;95340.09;4979879;28;20058;-84
2023/07/24 08:49:03;;;;;;;36.70;13.48;;;;;;;26.94;44.54;95362.56;4939986;28;20039;-85
2023/07/24 08:51:30;;;;;;;25.33;12.90;;;;;;;27.07;42.56;95388.38;4941639;29;20027;-85
2023/07/24 08:53:57;;;;;;;21.83;11.70;;;;;;;26.71;41.38;95330.03;4942752;28;20070;-85
2023/07/24 08:56:23;;;;;;;23.13;11.57;;;;;;;27.07;41.57;95382.94;4974777;28;20054;-85
2023/07/24 08:58:48;;;;;;;18.02;11.60;;;;;;;27.06;41.51;95379.41;5006947;28;20039;-85
2023/07/24 09:01:14;;;;;;;23.42;11.50;;;;;;;26.81;41.56;95316.53;4946529;28;20489;-85
2023/07/24 09:03:39;;;;;;;23.30;11.73;;;;;;;26.96;41.55;95341.97;4959274;29;20050;-85
2023/07/24 09:06:07;;;;;;;19.98;11.18;;;;;;;27.28;41.10;95355.91;4943769;28;20046;-85
2023/07/24 09:08:35;;;;;;;31.55;13.23;;;;;;;27.10;41.23;95333.94;4997954;28;20031;-85
2023/07/24 09:11:01;;;;;;;21.45;11.90;;;;;;;27.33;41.23;95341.94;4991927;28;20084;-85
2023/07/24 09:13:28;;;;;;;20.80;11.75;;;;;;;27.64;40.74;95385.00;4978447;28;20029;-85
2023/07/24 09:15:53;;;;;;;22.98;11.48;;;;;;;27.56;41.41;95369.78;4958807;28;20070;-84
2023/07/24 09:18:19;;;;;;;21.70;12.73;;;;;;;27.13;40.33;95291.59;4960093;29;20053;-85
2023/07/24 09:20:45;;;;;;;21.45;11.73;;;;;;;27.38;40.45;95310.84;4937753;28;21526;-85
2023/07/24 09:23:12;;;;;;;20.13;12.60;;;;;;;27.48;40.58;95321.81;4938538;29;20075;-85
2023/07/24 09:25:40;;;;;;;24.10;12.07;;;;;;;27.72;39.91;95358.59;4949446;29;20035;-85
2023/07/24 09:28:24;;;;;;;23.60;11.93;;;;;;;27.79;39.89;95350.47;4959412;29;20547;-85
2023/07/24 09:30:57;;;;;;;27.27;14.80;;;;;;;27.84;39.85;95343.91;4987745;28;20424;-85
2023/07/24 09:33:33;;;;;;;27.88;12.40;;;;;;;27.64;39.23;95310.66;4949323;28;20042;-85
2023/07/24 09:36:00;;;;;;;31.00;12.32;;;;;;;28.06;39.23;95345.59;4940597;28;20473;-85
2023/07/24 09:38:26;;;;;;;23.63;12.55;;;;;;;27.97;39.51;95313.22;4960687;28;20058;-84
2023/07/24 09:40:53;;;;;;;20.85;13.13;;;;;;;28.29;39.20;95345.34;4960382;29;20520;-86
2023/07/24 09:43:27;;;;;;;22.65;13.60;;;;;;;28.36;39.00;95339.91;4962131;29;20031;-87
2023/07/24 09:45:53;;;;;;;23.83;11.98;;;;;;;27.84;39.26;95232.94;4952112;28;20441;-85
2023/07/24 09:48:22;;;;;;;21.65;12.43;;;;;;;28.39;39.09;95320.03;4961995;28;20027;-85
2023/07/24 09:50:51;;;;;;;25.45;11.93;;;;;;;28.61;39.09;95326.38;4940746;29;20038;-85
2023/07/24 09:53:38;;;;;;;22.75;12.18;;;;;;;28.95;38.47;95319.47;4959130;28;20035;-85
2023/07/24 09:56:07;;;;;;;22.50;11.85;;;;;;;29.58;37.16;95315.22;4958942;29;20083;-85
2023/07/24 09:58:35;;;;;;;30.45;13.07;;;;;;;30.38;35.08;95315.44;4942672;29;20089;-86
2023/07/24 10:01:03;;;;;;;25.90;13.30;;;;;;;31.27;33.97;95301.28;4942698;28;20035;-85
2023/07/24 10:03:30;;;;;;;25.48;13.88;;;;;;;31.48;32.19;95246.28;4960224;29;20062;-85
2023/07/24 10:05:55;;;;;;;22.08;13.00;;;;;;;32.79;31.04;95302.47;4942952;28;20047;-85
2023/07/24 10:08:21;;;;;;;24.73;13.43;;;;;;;33.11;30.08;95312.97;4960885;29;20560;-84
2023/07/24 10:10:47;;;;;;;24.20;11.80;;;;;;;33.83;30.08;95294.16;4938678;29;20031;-85
2023/07/24 10:13:14;;;;;;;29.27;12.00;;;;;;;34.12;29.40;95244.09;4946268;29;20035;-85
2023/07/24 10:15:43;;;;;;;24.33;11.68;;;;;;;34.74;27.43;95260.50;4943143;29;20115;-85
2023/07/24 10:18:10;;;;;;;21.83;11.85;;;;;;;35.38;25.45;95292.13;4926602;28;20478;-85
2023/07/24 10:20:42;;;;;;;24.67;11.95;;;;;;;35.10;25.11;95248.66;4941748;29;20039;-86
2023/07/24 10:23:15;;;;;;;20.15;11.13;;;;;;;35.55;25.15;95274.34;4935803;28;20225;-86
2023/07/24 10:25:43;;;;;;;25.38;13.07;;;;;;;34.63;26.18;95195.84;4958728;28;20035;-86
2023/07/24 10:28:11;;;;;;;19.90;12.23;;;;;;;34.80;26.37;95192.69;4934070;28;20053;-86
2023/07/24 10:30:38;;;;;;;28.33;12.57;;;;;;;35.79;26.16;95266.66;4950693;29;20055;-86
2023/07/24 10:33:13;;;;;;;27.95;11.70;;;;;;;35.89;25.26;95248.28;4949705;29;20119;-86
2023/07/24 10:35:44;;;;;;;30.35;11.95;;;;;;;36.17;25.39;95266.81;4943400;28;20105;-86
2023/07/24 10:38:10;;;;;;;;;;;;;;;36.51;24.97;95279.31;4934461;28;20039;-86
2023/07/24 10:40:36;;;;;;;33.42;11.98;;;;;;;36.03;25.49;95169.84;4927630;29;19922;-86
2023/07/24 10:43:05;;;;;;;29.13;11.70;;;;;;;36.60;25.14;95265.63;4924280;28;20036;-86
2023/07/24 10:45:45;;;;;;;26.17;11.07;;;;;;;36.51;24.91;95268.25;4933496;29;20089;-86
2023/07/24 10:48:11;;;;;;;;;;;;;;;36.60;25.21;95266.41;4940896;29;20031;-86
2023/07/24 10:50:41;;;;;;;26.10;10.63;;;;;;;36.56;25.37;95227.03;4946939;29;19944;-86
2023/07/24 10:53:07;;;;;;;27.10;12.50;;;;;;;36.16;25.19;95146.56;4966996;28;20490;-86
2023/07/24 10:55:33;;;;;;;26.52;10.50;;;;;;;36.35;25.50;95253.31;4932501;28;20609;-86
2023/07/24 10:57:58;;;;;;;30.63;10.57;;;;;;;35.60;26.30;95218.69;4934822;29;20154;-86
2023/07/24 11:00:24;;;;;;;25.25;12.13;;;;;;;35.80;26.58;95240.63;4952929;29;20040;-86
2023/07/24 11:02:52;;;;;;;28.88;12.10;;;;;;;35.75;26.88;95223.84;4954262;29;20390;-86
2023/07/24 11:05:17;;;;;;;23.42;11.55;;;;;;;35.64;28.10;95235.13;4925006;29;20054;-86
2023/07/24 11:07:43;;;;;;;24.52;9.73;;;;;;;35.29;26.52;95227.78;4952552;29;20027;-86
2023/07/24 11:10:19;;;;;;;26.48;9.77;;;;;;;35.46;26.57;95240.34;4937686;29;20031;-85
2023/07/24 11:12:44;;;;;;;24.05;8.90;;;;;;;35.22;24.60;95166.09;4944445;29;20048;-85
2023/07/24 11:15:11;;;;;;;19.40;8.45;;;;;;;35.64;24.71;95229.59;4928285;29;20145;-85